sensor_id;sensor_type;location;lat;lon;timestamp;P1;durP1;ratioP1;P2;durP2;ratioP2
19113;SDS011;9689;51.052;13.772;2023-02-11T00:03:08;39.85;;;17.92;;
19113;SDS011;9689;51.052;13.772;2023-02-11T00:08:10;41.67;;;17.90;;
19113;SDS011;9689;51.052;13.772;2023-02-11T00:13:15;49.45;;;18.40;;
19113;SDS011;9689;51.052;13.772;2023-02-11T00:18:15;45.78;;;17.60;;
19113;SDS011;9689;51.052;13.772;2023-02-11T00:23:18;41.05;;;17.83;;
19113;SDS011;9689;51.052;13.772;2023-02-11T00:28:18;38.47;;;17.05;;
19113;SDS011;9689;51.052;13.772;2023-02-11T00:33:19;44.42;;;17.98;;
19113;SDS011;9689;51.052;13.772;2023-02-11T00:38:21;40.70;;;17.02;;
19113;SDS011;9689;51.052;13.772;2023-02-11T00:43:22;39.42;;;16.85;;
19113;SDS011;9689;51.052;13.772;2023-02-11T00:48:22;40.25;;;16.73;;
19113;SDS011;9689;51.052;13.772;2023-02-11T00:53:24;38.90;;;17.75;;
19113;SDS011;9689;51.052;13.772;2023-02-11T00:58:26;38.40;;;16.85;;
19113;SDS011;9689;51.052;13.772;2023-02-11T01:03:27;40.45;;;17.10;;
19113;SDS011;9689;51.052;13.772;2023-02-11T01:08:29;41.85;;;18.45;;
19113;SDS011;9689;51.052;13.772;2023-02-11T01:13:31;39.78;;;17.17;;
19113;SDS011;9689;51.052;13.772;2023-02-11T01:18:35;32.63;;;16.90;;
19113;SDS011;9689;51.052;13.772;2023-02-11T01:23:38;36.67;;;16.75;;
19113;SDS011;9689;51.052;13.772;2023-02-11T01:28:39;44.50;;;17.80;;
19113;SDS011;9689;51.052;13.772;2023-02-11T01:33:40;40.22;;;16.80;;
19113;SDS011;9689;51.052;13.772;2023-02-11T01:38:42;38.65;;;17.85;;
19113;SDS011;9689;51.052;13.772;2023-02-11T01:43:44;38.60;;;18.08;;
19113;SDS011;9689;51.052;13.772;2023-02-11T01:48:47;39.30;;;18.10;;
19113;SDS011;9689;51.052;13.772;2023-02-11T01:53:53;42.20;;;17.50;;
19113;SDS011;9689;51.052;13.772;2023-02-11T01:59:17;39.42;;;17.83;;
19113;SDS011;9689;51.052;13.772;2023-02-11T02:04:21;40.58;;;19.30;;
19113;SDS011;9689;51.052;13.772;2023-02-11T02:09:31;39.78;;;18.15;;
19113;SDS011;9689;51.052;13.772;2023-02-11T02:14:37;37.45;;;18.33;;
19113;SDS011;9689;51.052;13.772;2023-02-11T02:25:29;38.08;;;18.20;;
19113;SDS011;9689;51.052;13.772;2023-02-11T02:30:57;40.58;;;18.15;;
19113;SDS011;9689;51.052;13.772;2023-02-11T02:36:22;36.90;;;17.85;;
19113;SDS011;9689;51.052;13.772;2023-02-11T02:41:28;38.13;;;18.00;;
19113;SDS011;9689;51.052;13.772;2023-02-11T02:46:31;42.05;;;18.23;;
19113;SDS011;9689;51.052;13.772;2023-02-11T02:51:41;40.60;;;18.30;;
19113;SDS011;9689;51.052;13.772;2023-02-11T02:56:53;36.50;;;18.40;;
19113;SDS011;9689;51.052;13.772;2023-02-11T03:02:00;36.72;;;18.23;;
19113;SDS011;9689;51.052;13.772;2023-02-11T03:07:11;37.50;;;18.38;;
19113;SDS011;9689;51.052;13.772;2023-02-11T03:12:20;36.25;;;17.65;;
19113;SDS011;9689;51.052;13.772;2023-02-11T03:17:22;36.05;;;17.10;;
19113;SDS011;9689;51.052;13.772;2023-02-11T03:22:31;35.00;;;16.83;;
19113;SDS011;9689;51.052;13.772;2023-02-11T03:27:36;36.17;;;16.85;;
19113;SDS011;9689;51.052;13.772;2023-02-11T03:32:41;39.65;;;17.73;;
19113;SDS011;9689;51.052;13.772;2023-02-11T03:37:49;46.65;;;17.80;;
19113;SDS011;9689;51.052;13.772;2023-02-11T03:42:53;38.15;;;17.00;;
19113;SDS011;9689;51.052;13.772;2023-02-11T03:47:59;37.85;;;17.75;;
19113;SDS011;9689;51.052;13.772;2023-02-11T03:53:02;39.10;;;17.83;;
19113;SDS011;9689;51.052;13.772;2023-02-11T03:58:04;41.72;;;19.20;;
19113;SDS011;9689;51.052;13.772;2023-02-11T04:03:05;44.58;;;19.45;;
19113;SDS011;9689;51.052;13.772;2023-02-11T04:08:07;40.42;;;19.42;;
19113;SDS011;9689;51.052;13.772;2023-02-11T04:13:08;44.95;;;20.08;;
19113;SDS011;9689;51.052;13.772;2023-02-11T04:18:09;46.83;;;20.33;;
19113;SDS011;9689;51.052;13.772;2023-02-11T04:23:11;45.63;;;19.50;;
19113;SDS011;9689;51.052;13.772;2023-02-11T04:28:12;43.70;;;19.83;;
19113;SDS011;9689;51.052;13.772;2023-02-11T04:33:12;41.78;;;18.35;;
19113;SDS011;9689;51.052;13.772;2023-02-11T04:38:15;48.40;;;20.45;;
19113;SDS011;9689;51.052;13.772;2023-02-11T04:43:15;42.30;;;19.40;;
19113;SDS011;9689;51.052;13.772;2023-02-11T04:48:16;44.35;;;19.27;;
19113;SDS011;9689;51.052;13.772;2023-02-11T04:53:18;39.30;;;19.40;;
19113;SDS011;9689;51.052;13.772;2023-02-11T04:58:19;39.28;;;19.15;;
19113;SDS011;9689;51.052;13.772;2023-02-11T05:03:20;38.63;;;18.35;;
19113;SDS011;9689;51.052;13.772;2023-02-11T05:08:22;43.03;;;19.77;;
19113;SDS011;9689;51.052;13.772;2023-02-11T05:13:23;42.75;;;19.50;;
19113;SDS011;9689;51.052;13.772;2023-02-11T05:18:24;51.88;;;21.63;;
19113;SDS011;9689;51.052;13.772;2023-02-11T05:23:26;44.55;;;20.38;;
19113;SDS011;9689;51.052;13.772;2023-02-11T05:28:26;49.70;;;21.63;;
19113;SDS011;9689;51.052;13.772;2023-02-11T05:33:27;44.78;;;20.55;;
19113;SDS011;9689;51.052;13.772;2023-02-11T05:38:29;42.50;;;20.60;;
19113;SDS011;9689;51.052;13.772;2023-02-11T05:43:30;47.38;;;20.40;;
19113;SDS011;9689;51.052;13.772;2023-02-11T05:48:33;52.63;;;22.42;;
19113;SDS011;9689;51.052;13.772;2023-02-11T05:53:35;53.22;;;20.95;;
19113;SDS011;9689;51.052;13.772;2023-02-11T05:58:36;44.72;;;20.90;;
19113;SDS011;9689;51.052;13.772;2023-02-11T06:03:37;49.63;;;22.70;;
19113;SDS011;9689;51.052;13.772;2023-02-11T06:08:40;49.67;;;21.40;;
19113;SDS011;9689;51.052;13.772;2023-02-11T06:13:41;53.15;;;22.23;;
19113;SDS011;9689;51.052;13.772;2023-02-11T06:18:42;50.05;;;21.40;;
19113;SDS011;9689;51.052;13.772;2023-02-11T06:23:44;50.80;;;22.75;;
19113;SDS011;9689;51.052;13.772;2023-02-11T06:28:45;50.95;;;23.00;;
19113;SDS011;9689;51.052;13.772;2023-02-11T06:33:45;56.08;;;22.30;;
19113;SDS011;9689;51.052;13.772;2023-02-11T06:38:49;58.05;;;22.58;;
19113;SDS011;9689;51.052;13.772;2023-02-11T06:43:51;42.88;;;21.35;;
19113;SDS011;9689;51.052;13.772;2023-02-11T06:48:52;50.03;;;20.77;;
19113;SDS011;9689;51.052;13.772;2023-02-11T06:53:54;45.15;;;21.60;;
19113;SDS011;9689;51.052;13.772;2023-02-11T06:58:54;42.67;;;20.20;;
19113;SDS011;9689;51.052;13.772;2023-02-11T07:03:56;56.15;;;22.90;;
19113;SDS011;9689;51.052;13.772;2023-02-11T07:08:58;51.88;;;22.27;;
19113;SDS011;9689;51.052;13.772;2023-02-11T07:13:59;48.15;;;21.90;;
19113;SDS011;9689;51.052;13.772;2023-02-11T07:19:02;52.40;;;23.00;;
19113;SDS011;9689;51.052;13.772;2023-02-11T07:24:06;49.78;;;22.48;;
19113;SDS011;9689;51.052;13.772;2023-02-11T07:29:09;48.60;;;22.50;;
19113;SDS011;9689;51.052;13.772;2023-02-11T07:34:10;49.83;;;21.35;;
19113;SDS011;9689;51.052;13.772;2023-02-11T07:39:12;50.95;;;22.80;;
19113;SDS011;9689;51.052;13.772;2023-02-11T07:44:13;46.63;;;22.58;;
19113;SDS011;9689;51.052;13.772;2023-02-11T07:49:13;46.78;;;21.83;;
19113;SDS011;9689;51.052;13.772;2023-02-11T07:54:16;50.72;;;22.48;;
19113;SDS011;9689;51.052;13.772;2023-02-11T07:59:17;49.92;;;21.83;;
19113;SDS011;9689;51.052;13.772;2023-02-11T08:04:18;48.63;;;22.23;;
19113;SDS011;9689;51.052;13.772;2023-02-11T08:09:20;52.10;;;21.88;;
19113;SDS011;9689;51.052;13.772;2023-02-11T08:14:20;51.83;;;22.75;;
19113;SDS011;9689;51.052;13.772;2023-02-11T08:19:23;45.90;;;21.15;;
19113;SDS011;9689;51.052;13.772;2023-02-11T08:24:26;46.53;;;20.67;;
19113;SDS011;9689;51.052;13.772;2023-02-11T08:29:27;47.50;;;20.83;;
19113;SDS011;9689;51.052;13.772;2023-02-11T08:34:28;47.90;;;21.10;;
19113;SDS011;9689;51.052;13.772;2023-02-11T08:39:30;46.13;;;21.75;;
19113;SDS011;9689;51.052;13.772;2023-02-11T08:44:30;49.88;;;21.55;;
19113;SDS011;9689;51.052;13.772;2023-02-11T08:49:31;43.05;;;21.52;;
19113;SDS011;9689;51.052;13.772;2023-02-11T08:54:33;44.55;;;20.92;;
19113;SDS011;9689;51.052;13.772;2023-02-11T08:59:34;57.90;;;24.05;;
19113;SDS011;9689;51.052;13.772;2023-02-11T09:04:35;40.22;;;20.48;;
19113;SDS011;9689;51.052;13.772;2023-02-11T09:09:37;44.22;;;19.95;;
19113;SDS011;9689;51.052;13.772;2023-02-11T09:14:38;38.45;;;19.92;;
19113;SDS011;9689;51.052;13.772;2023-02-11T09:19:40;45.25;;;20.33;;
19113;SDS011;9689;51.052;13.772;2023-02-11T09:24:42;44.90;;;21.65;;
19113;SDS011;9689;51.052;13.772;2023-02-11T09:29:43;47.72;;;21.40;;
19113;SDS011;9689;51.052;13.772;2023-02-11T09:34:43;46.25;;;22.42;;
19113;SDS011;9689;51.052;13.772;2023-02-11T09:39:46;44.85;;;21.17;;
19113;SDS011;9689;51.052;13.772;2023-02-11T09:44:46;46.80;;;21.45;;
19113;SDS011;9689;51.052;13.772;2023-02-11T09:49:49;44.05;;;20.17;;
19113;SDS011;9689;51.052;13.772;2023-02-11T09:54:54;45.00;;;21.70;;
19113;SDS011;9689;51.052;13.772;2023-02-11T09:59:57;52.25;;;23.48;;
19113;SDS011;9689;51.052;13.772;2023-02-11T10:05:04;49.42;;;21.70;;
19113;SDS011;9689;51.052;13.772;2023-02-11T10:10:15;52.05;;;23.88;;
19113;SDS011;9689;51.052;13.772;2023-02-11T10:15:29;54.35;;;22.95;;
19113;SDS011;9689;51.052;13.772;2023-02-11T10:20:44;50.55;;;23.38;;
19113;SDS011;9689;51.052;13.772;2023-02-11T10:25:52;48.60;;;22.83;;
19113;SDS011;9689;51.052;13.772;2023-02-11T10:30:56;51.40;;;21.45;;
19113;SDS011;9689;51.052;13.772;2023-02-11T10:35:59;48.55;;;21.08;;
19113;SDS011;9689;51.052;13.772;2023-02-11T10:41:01;44.17;;;21.25;;
19113;SDS011;9689;51.052;13.772;2023-02-11T10:46:02;41.17;;;20.52;;
19113;SDS011;9689;51.052;13.772;2023-02-11T10:51:13;44.70;;;19.65;;
19113;SDS011;9689;51.052;13.772;2023-02-11T10:56:22;41.05;;;21.80;;
19113;SDS011;9689;51.052;13.772;2023-02-11T11:01:39;43.97;;;21.20;;
19113;SDS011;9689;51.052;13.772;2023-02-11T11:06:42;45.05;;;20.60;;
19113;SDS011;9689;51.052;13.772;2023-02-11T11:11:51;41.88;;;20.30;;
19113;SDS011;9689;51.052;13.772;2023-02-11T11:16:52;48.17;;;21.75;;
19113;SDS011;9689;51.052;13.772;2023-02-11T11:21:54;49.78;;;20.88;;
19113;SDS011;9689;51.052;13.772;2023-02-11T11:26:58;44.50;;;21.17;;
19113;SDS011;9689;51.052;13.772;2023-02-11T11:32:01;39.70;;;19.35;;
19113;SDS011;9689;51.052;13.772;2023-02-11T11:37:08;48.25;;;21.55;;
19113;SDS011;9689;51.052;13.772;2023-02-11T11:42:26;44.00;;;20.40;;
19113;SDS011;9689;51.052;13.772;2023-02-11T11:47:28;39.13;;;19.02;;
19113;SDS011;9689;51.052;13.772;2023-02-11T11:52:34;37.72;;;19.75;;
19113;SDS011;9689;51.052;13.772;2023-02-11T11:57:42;38.45;;;18.83;;
19113;SDS011;9689;51.052;13.772;2023-02-11T12:02:50;40.55;;;20.05;;
19113;SDS011;9689;51.052;13.772;2023-02-11T12:08:10;37.72;;;19.15;;
19113;SDS011;9689;51.052;13.772;2023-02-11T12:13:28;45.40;;;19.95;;
19113;SDS011;9689;51.052;13.772;2023-02-11T12:18:43;45.50;;;19.15;;
19113;SDS011;9689;51.052;13.772;2023-02-11T12:24:09;46.53;;;20.13;;
19113;SDS011;9689;51.052;13.772;2023-02-11T12:29:24;43.45;;;20.00;;
19113;SDS011;9689;51.052;13.772;2023-02-11T12:34:38;37.58;;;19.50;;
19113;SDS011;9689;51.052;13.772;2023-02-11T12:40:01;40.05;;;18.00;;
19113;SDS011;9689;51.052;13.772;2023-02-11T12:45:18;41.78;;;19.00;;
19113;SDS011;9689;51.052;13.772;2023-02-11T12:50:27;45.42;;;20.60;;
19113;SDS011;9689;51.052;13.772;2023-02-11T12:55:34;38.38;;;18.98;;
19113;SDS011;9689;51.052;13.772;2023-02-11T13:00:41;42.53;;;20.13;;
19113;SDS011;9689;51.052;13.772;2023-02-11T13:05:48;45.90;;;19.63;;
19113;SDS011;9689;51.052;13.772;2023-02-11T13:10:53;37.30;;;18.77;;
19113;SDS011;9689;51.052;13.772;2023-02-11T13:15:59;40.88;;;18.23;;
19113;SDS011;9689;51.052;13.772;2023-02-11T13:21:13;38.38;;;19.27;;
19113;SDS011;9689;51.052;13.772;2023-02-11T13:26:22;41.50;;;19.77;;
19113;SDS011;9689;51.052;13.772;2023-02-11T13:31:31;43.03;;;19.05;;
19113;SDS011;9689;51.052;13.772;2023-02-11T13:36:32;39.10;;;18.55;;
19113;SDS011;9689;51.052;13.772;2023-02-11T13:41:34;37.33;;;19.30;;
19113;SDS011;9689;51.052;13.772;2023-02-11T13:46:49;36.22;;;18.13;;
19113;SDS011;9689;51.052;13.772;2023-02-11T13:51:53;41.30;;;18.85;;
19113;SDS011;9689;51.052;13.772;2023-02-11T13:57:18;47.53;;;19.40;;
19113;SDS011;9689;51.052;13.772;2023-02-11T14:02:25;33.08;;;17.42;;
19113;SDS011;9689;51.052;13.772;2023-02-11T14:13:31;41.72;;;18.13;;
19113;SDS011;9689;51.052;13.772;2023-02-11T14:29:48;42.17;;;19.35;;
19113;SDS011;9689;51.052;13.772;2023-02-11T14:35:00;38.05;;;17.45;;
19113;SDS011;9689;51.052;13.772;2023-02-11T14:40:12;40.75;;;17.95;;
19113;SDS011;9689;51.052;13.772;2023-02-11T14:45:18;37.53;;;18.88;;
19113;SDS011;9689;51.052;13.772;2023-02-11T14:50:24;34.88;;;17.90;;
19113;SDS011;9689;51.052;13.772;2023-02-11T14:55:28;36.38;;;17.77;;
19113;SDS011;9689;51.052;13.772;2023-02-11T15:00:31;34.88;;;17.83;;
19113;SDS011;9689;51.052;13.772;2023-02-11T15:05:34;42.17;;;18.35;;
19113;SDS011;9689;51.052;13.772;2023-02-11T15:10:36;38.33;;;18.52;;
19113;SDS011;9689;51.052;13.772;2023-02-11T15:15:41;39.40;;;18.27;;
19113;SDS011;9689;51.052;13.772;2023-02-11T15:20:46;40.60;;;18.60;;
19113;SDS011;9689;51.052;13.772;2023-02-11T15:25:48;40.17;;;18.08;;
19113;SDS011;9689;51.052;13.772;2023-02-11T15:30:58;36.67;;;16.58;;
19113;SDS011;9689;51.052;13.772;2023-02-11T15:36:02;38.65;;;16.58;;
19113;SDS011;9689;51.052;13.772;2023-02-11T15:41:03;33.20;;;16.08;;
19113;SDS011;9689;51.052;13.772;2023-02-11T15:46:05;35.03;;;16.95;;
19113;SDS011;9689;51.052;13.772;2023-02-11T15:51:22;38.70;;;17.60;;
19113;SDS011;9689;51.052;13.772;2023-02-11T15:56:28;42.55;;;18.13;;
19113;SDS011;9689;51.052;13.772;2023-02-11T16:01:32;37.78;;;17.08;;
19113;SDS011;9689;51.052;13.772;2023-02-11T16:06:36;35.38;;;18.27;;
19113;SDS011;9689;51.052;13.772;2023-02-11T16:11:52;34.08;;;18.02;;
19113;SDS011;9689;51.052;13.772;2023-02-11T16:16:55;35.40;;;16.90;;
19113;SDS011;9689;51.052;13.772;2023-02-11T16:22:01;35.00;;;17.38;;
19113;SDS011;9689;51.052;13.772;2023-02-11T16:27:15;35.65;;;17.42;;
19113;SDS011;9689;51.052;13.772;2023-02-11T16:32:21;41.35;;;17.88;;
19113;SDS011;9689;51.052;13.772;2023-02-11T16:37:25;37.88;;;19.00;;
19113;SDS011;9689;51.052;13.772;2023-02-11T16:42:26;41.17;;;20.10;;
19113;SDS011;9689;51.052;13.772;2023-02-11T16:47:28;39.40;;;20.38;;
19113;SDS011;9689;51.052;13.772;2023-02-11T16:52:31;38.88;;;19.23;;
19113;SDS011;9689;51.052;13.772;2023-02-11T16:57:33;40.20;;;20.65;;
19113;SDS011;9689;51.052;13.772;2023-02-11T17:02:34;53.85;;;23.13;;
19113;SDS011;9689;51.052;13.772;2023-02-11T17:07:37;45.95;;;21.02;;
19113;SDS011;9689;51.052;13.772;2023-02-11T17:12:38;43.63;;;21.60;;
19113;SDS011;9689;51.052;13.772;2023-02-11T17:17:39;47.53;;;21.48;;
19113;SDS011;9689;51.052;13.772;2023-02-11T17:22:41;50.40;;;22.65;;
19113;SDS011;9689;51.052;13.772;2023-02-11T17:27:42;49.97;;;22.50;;
19113;SDS011;9689;51.052;13.772;2023-02-11T17:32:43;46.05;;;23.20;;
19113;SDS011;9689;51.052;13.772;2023-02-11T17:37:46;45.47;;;21.70;;
19113;SDS011;9689;51.052;13.772;2023-02-11T17:42:47;46.05;;;23.00;;
19113;SDS011;9689;51.052;13.772;2023-02-11T17:47:49;47.22;;;22.83;;
19113;SDS011;9689;51.052;13.772;2023-02-11T17:52:51;42.17;;;21.42;;
19113;SDS011;9689;51.052;13.772;2023-02-11T17:57:53;41.83;;;21.48;;
19113;SDS011;9689;51.052;13.772;2023-02-11T18:02:54;40.60;;;21.17;;
19113;SDS011;9689;51.052;13.772;2023-02-11T18:07:57;49.08;;;22.60;;
19113;SDS011;9689;51.052;13.772;2023-02-11T18:12:58;53.15;;;25.33;;
19113;SDS011;9689;51.052;13.772;2023-02-11T18:17:59;49.50;;;23.50;;
19113;SDS011;9689;51.052;13.772;2023-02-11T18:23:01;48.45;;;23.10;;
19113;SDS011;9689;51.052;13.772;2023-02-11T18:28:02;50.80;;;23.98;;
19113;SDS011;9689;51.052;13.772;2023-02-11T18:33:03;50.75;;;23.25;;
19113;SDS011;9689;51.052;13.772;2023-02-11T18:38:08;49.17;;;23.85;;
19113;SDS011;9689;51.052;13.772;2023-02-11T18:43:09;48.85;;;22.65;;
19113;SDS011;9689;51.052;13.772;2023-02-11T18:48:10;55.08;;;24.00;;
19113;SDS011;9689;51.052;13.772;2023-02-11T18:53:13;48.92;;;23.10;;
19113;SDS011;9689;51.052;13.772;2023-02-11T18:58:15;53.50;;;24.55;;
19113;SDS011;9689;51.052;13.772;2023-02-11T19:03:16;44.40;;;22.90;;
19113;SDS011;9689;51.052;13.772;2023-02-11T19:08:18;46.90;;;22.20;;
19113;SDS011;9689;51.052;13.772;2023-02-11T19:13:19;47.80;;;23.05;;
19113;SDS011;9689;51.052;13.772;2023-02-11T19:18:19;47.75;;;22.52;;
19113;SDS011;9689;51.052;13.772;2023-02-11T19:23:21;46.45;;;22.00;;
19113;SDS011;9689;51.052;13.772;2023-02-11T19:28:22;41.10;;;22.25;;
19113;SDS011;9689;51.052;13.772;2023-02-11T19:33:23;45.03;;;21.17;;
19113;SDS011;9689;51.052;13.772;2023-02-11T19:38:25;44.70;;;22.20;;
19113;SDS011;9689;51.052;13.772;2023-02-11T19:43:26;39.88;;;20.52;;
19113;SDS011;9689;51.052;13.772;2023-02-11T19:48:27;42.65;;;20.45;;
19113;SDS011;9689;51.052;13.772;2023-02-11T19:53:29;44.33;;;21.48;;
19113;SDS011;9689;51.052;13.772;2023-02-11T19:58:30;42.03;;;19.80;;
19113;SDS011;9689;51.052;13.772;2023-02-11T20:03:31;38.80;;;19.25;;
19113;SDS011;9689;51.052;13.772;2023-02-11T20:08:33;35.85;;;19.23;;
19113;SDS011;9689;51.052;13.772;2023-02-11T20:13:34;42.70;;;20.33;;
19113;SDS011;9689;51.052;13.772;2023-02-11T20:18:36;36.55;;;18.85;;
19113;SDS011;9689;51.052;13.772;2023-02-11T20:23:39;41.53;;;19.30;;
19113;SDS011;9689;51.052;13.772;2023-02-11T20:28:40;38.55;;;19.42;;
19113;SDS011;9689;51.052;13.772;2023-02-11T20:33:41;38.40;;;19.90;;
19113;SDS011;9689;51.052;13.772;2023-02-11T20:38:44;36.88;;;19.55;;
19113;SDS011;9689;51.052;13.772;2023-02-11T20:43:46;39.20;;;20.38;;
19113;SDS011;9689;51.052;13.772;2023-02-11T20:48:48;41.17;;;20.15;;
19113;SDS011;9689;51.052;13.772;2023-02-11T20:53:50;41.95;;;20.83;;
19113;SDS011;9689;51.052;13.772;2023-02-11T20:58:52;139.00;;;70.63;;
19113;SDS011;9689;51.052;13.772;2023-02-11T21:03:54;101.88;;;50.08;;
19113;SDS011;9689;51.052;13.772;2023-02-11T21:08:57;54.35;;;27.73;;
19113;SDS011;9689;51.052;13.772;2023-02-11T21:14:00;45.08;;;22.23;;
19113;SDS011;9689;51.052;13.772;2023-02-11T21:19:01;42.75;;;21.33;;
19113;SDS011;9689;51.052;13.772;2023-02-11T21:24:04;41.35;;;20.23;;
19113;SDS011;9689;51.052;13.772;2023-02-11T21:29:06;42.47;;;21.33;;
19113;SDS011;9689;51.052;13.772;2023-02-11T21:34:08;45.33;;;21.90;;
19113;SDS011;9689;51.052;13.772;2023-02-11T21:39:11;42.15;;;21.08;;
19113;SDS011;9689;51.052;13.772;2023-02-11T21:44:13;47.08;;;22.40;;
19113;SDS011;9689;51.052;13.772;2023-02-11T21:49:14;48.53;;;21.35;;
19113;SDS011;9689;51.052;13.772;2023-02-11T21:54:16;43.00;;;22.25;;
19113;SDS011;9689;51.052;13.772;2023-02-11T21:59:17;39.58;;;20.75;;
19113;SDS011;9689;51.052;13.772;2023-02-11T22:04:17;48.22;;;22.67;;
19113;SDS011;9689;51.052;13.772;2023-02-11T22:09:20;46.13;;;20.85;;
19113;SDS011;9689;51.052;13.772;2023-02-11T22:14:20;49.22;;;22.98;;
19113;SDS011;9689;51.052;13.772;2023-02-11T22:19:21;44.17;;;22.77;;
19113;SDS011;9689;51.052;13.772;2023-02-11T22:24:24;53.88;;;23.17;;
19113;SDS011;9689;51.052;13.772;2023-02-11T22:29:25;51.20;;;24.90;;
19113;SDS011;9689;51.052;13.772;2023-02-11T22:34:26;51.17;;;24.92;;
19113;SDS011;9689;51.052;13.772;2023-02-11T22:39:28;50.08;;;23.52;;
19113;SDS011;9689;51.052;13.772;2023-02-11T22:44:29;51.72;;;25.00;;
19113;SDS011;9689;51.052;13.772;2023-02-11T22:49:30;49.70;;;23.15;;
19113;SDS011;9689;51.052;13.772;2023-02-11T22:54:32;55.85;;;25.88;;
19113;SDS011;9689;51.052;13.772;2023-02-11T22:59:34;49.95;;;24.83;;
19113;SDS011;9689;51.052;13.772;2023-02-11T23:04:35;59.95;;;26.77;;
19113;SDS011;9689;51.052;13.772;2023-02-11T23:09:37;50.35;;;25.15;;
19113;SDS011;9689;51.052;13.772;2023-02-11T23:14:37;60.65;;;25.73;;
19113;SDS011;9689;51.052;13.772;2023-02-11T23:19:38;55.53;;;26.25;;
19113;SDS011;9689;51.052;13.772;2023-02-11T23:24:40;59.35;;;27.13;;
19113;SDS011;9689;51.052;13.772;2023-02-11T23:29:41;55.22;;;25.27;;
19113;SDS011;9689;51.052;13.772;2023-02-11T23:34:42;55.88;;;26.80;;
19113;SDS011;9689;51.052;13.772;2023-02-11T23:39:44;54.75;;;26.33;;
19113;SDS011;9689;51.052;13.772;2023-02-11T23:44:45;63.78;;;26.33;;
19113;SDS011;9689;51.052;13.772;2023-02-11T23:49:46;60.45;;;28.25;;
19113;SDS011;9689;51.052;13.772;2023-02-11T23:54:47;63.38;;;29.38;;
19113;SDS011;9689;51.052;13.772;2023-02-11T23:59:48;64.95;;;29.00;;
